createdAt,value
2022-08-04T00:00:48.449Z,68.13
2022-08-04T00:01:48.479Z,68.32
2022-08-04T00:02:48.426Z,68.23
2022-08-04T00:03:48.399Z,68.23
2022-08-04T00:04:48.470Z,67.93
2022-08-04T00:05:48.389Z,68.32
2022-08-04T00:06:48.358Z,68.66
2022-08-04T00:07:48.370Z,68.55
2022-08-04T00:08:48.355Z,68.66
2022-08-04T00:09:48.378Z,68.55
2022-08-04T00:10:48.310Z,68.66
2022-08-04T00:11:48.300Z,68.96
2022-08-04T00:12:48.290Z,68.96
2022-08-04T00:13:52.684Z,68.66
2022-08-04T00:14:49.275Z,68.66
2022-08-04T00:15:48.240Z,68.55
2022-08-04T00:16:48.231Z,68.66
2022-08-04T00:17:48.231Z,68.66
2022-08-04T00:18:48.211Z,68.86
2022-08-04T00:19:48.209Z,68.86
2022-08-04T00:20:48.191Z,69.06
2022-08-04T00:21:48.223Z,69.36
2022-08-04T00:22:48.152Z,69.86
2022-08-04T00:24:11.968Z,69.79
2022-08-04T00:24:49.143Z,69.89
2022-08-04T00:25:48.112Z,69.89
2022-08-04T00:26:48.105Z,69.86
2022-08-04T00:27:48.100Z,70.16
2022-08-04T00:28:48.072Z,70.29
2022-08-04T00:29:48.073Z,70.19
2022-08-04T00:30:49.053Z,69.99
2022-08-04T00:31:55.889Z,69.99
2022-08-04T00:32:49.023Z,70.19
2022-08-04T00:33:48.013Z,69.99
2022-08-04T00:34:48.015Z,70.19
2022-08-04T00:35:47.984Z,70.29
2022-08-04T00:36:47.973Z,70.09
2022-08-04T00:37:47.983Z,70.19
2022-08-04T00:38:47.954Z,70.09
2022-08-04T00:39:47.942Z,70.50
2022-08-04T00:40:47.913Z,70.39
2022-08-04T00:41:56.321Z,70.29
2022-08-04T00:42:58.666Z,70.19
2022-08-04T00:43:48.872Z,70.09
2022-08-04T00:44:47.885Z,69.89
2022-08-04T00:46:13.454Z,69.89
2022-08-04T00:46:48.837Z,69.99
2022-08-04T00:47:47.832Z,69.79
2022-08-04T00:48:47.814Z,69.69
2022-08-04T00:49:47.806Z,69.69
2022-08-04T00:50:47.783Z,70.09
2022-08-04T00:51:47.776Z,70.19
2022-08-04T00:52:48.766Z,70.09
2022-08-04T00:53:49.632Z,70.09
2022-08-04T00:54:47.755Z,69.99
2022-08-04T00:55:47.724Z,69.99
2022-08-04T00:56:47.704Z,69.99
2022-08-04T00:57:47.696Z,70.03
2022-08-04T00:58:47.685Z,70.32
2022-08-04T00:59:47.684Z,70.43
2022-08-04T01:00:47.692Z,70.32
2022-08-04T01:01:47.681Z,70.32
2022-08-04T01:02:47.628Z,70.03
2022-08-04T01:03:47.609Z,70.23
2022-08-04T01:04:47.598Z,70.43
2022-08-04T01:05:47.598Z,70.62
2022-08-04T01:06:56.140Z,70.32
2022-08-04T01:07:48.568Z,70.12
2022-08-04T01:08:47.568Z,70.32
2022-08-04T01:09:47.528Z,70.32
2022-08-04T01:10:47.558Z,70.43
2022-08-04T01:11:57.471Z,70.43
2022-08-04T01:12:48.490Z,70.43
2022-08-04T01:13:47.478Z,70.43
2022-08-04T01:14:47.471Z,70.43
2022-08-04T01:15:56.486Z,70.53
2022-08-04T01:16:48.460Z,70.43
2022-08-04T01:17:47.439Z,70.62
2022-08-04T01:18:47.409Z,70.83
2022-08-04T01:19:47.399Z,70.62
2022-08-04T01:20:47.389Z,70.76
2022-08-04T01:21:47.390Z,70.36
2022-08-04T01:22:47.360Z,70.46
2022-08-04T01:23:47.349Z,70.46
2022-08-04T01:24:47.348Z,70.76
2022-08-04T01:25:47.320Z,70.96
2022-08-04T01:26:57.647Z,70.96
2022-08-04T01:27:48.302Z,70.86
2022-08-04T01:28:47.284Z,70.96
2022-08-04T01:29:48.784Z,71.06
2022-08-04T01:30:47.267Z,71.20
2022-08-04T01:31:47.261Z,71.00
2022-08-04T01:32:47.221Z,71.09
2022-08-04T01:33:58.653Z,71.20
2022-08-04T01:34:48.186Z,71.20
2022-08-04T01:35:48.463Z,71.00
2022-08-04T01:36:50.078Z,71.00
2022-08-04T01:37:47.171Z,71.09
2022-08-04T01:38:47.141Z,71.20
2022-08-04T01:39:47.128Z,71.39
2022-08-04T01:40:47.110Z,71.39
2022-08-04T01:41:58.297Z,71.39
2022-08-04T01:42:48.103Z,71.39
2022-08-04T01:43:47.081Z,71.50
2022-08-04T01:44:47.072Z,71.50
2022-08-04T01:45:47.050Z,71.50
2022-08-04T01:46:47.071Z,71.50
2022-08-04T01:47:47.035Z,71.50
2022-08-04T01:48:47.003Z,71.39
2022-08-04T01:49:47.001Z,71.50
2022-08-04T01:50:46.982Z,71.59
2022-08-04T01:51:47.983Z,71.70
2022-08-04T01:52:50.949Z,71.39
2022-08-04T01:53:46.942Z,71.30
2022-08-04T01:54:46.922Z,71.39
2022-08-04T01:55:55.244Z,71.30
2022-08-04T01:56:47.922Z,71.30
2022-08-04T01:57:46.969Z,71.30
2022-08-04T01:58:46.881Z,71.39
2022-08-04T01:59:46.863Z,71.53
2022-08-04T02:00:46.842Z,71.63
2022-08-04T02:01:46.946Z,71.63
2022-08-04T02:02:46.890Z,71.53
2022-08-04T02:04:22.099Z,71.63
2022-08-04T02:04:47.794Z,71.83
2022-08-04T02:06:03.414Z,71.73
2022-08-04T02:06:47.783Z,71.73
2022-08-04T02:07:46.766Z,71.73
2022-08-04T02:08:46.744Z,71.73
2022-08-04T02:09:53.846Z,71.73
2022-08-04T02:10:47.712Z,71.83
2022-08-04T02:11:46.724Z,71.93
2022-08-04T02:12:46.683Z,71.83
2022-08-04T02:13:46.676Z,71.83
2022-08-04T02:14:46.662Z,71.93
2022-08-04T02:15:46.645Z,72.03
2022-08-04T02:16:46.658Z,72.13
2022-08-04T02:17:47.635Z,72.24
2022-08-04T02:18:46.605Z,72.43
2022-08-04T02:19:46.596Z,72.53
2022-08-04T02:20:46.583Z,72.43
2022-08-04T02:21:46.565Z,72.53
2022-08-04T02:22:46.573Z,72.53
2022-08-04T02:23:46.546Z,72.53
2022-08-04T02:24:46.525Z,72.63
2022-08-04T02:25:46.515Z,72.67
2022-08-04T02:26:46.616Z,72.77
2022-08-04T02:27:59.418Z,72.77
2022-08-04T02:28:47.474Z,72.67
2022-08-04T02:29:46.468Z,72.47
2022-08-04T02:30:46.436Z,72.37
2022-08-04T02:31:46.437Z,72.37
2022-08-04T02:32:46.430Z,72.37
2022-08-04T02:33:46.418Z,72.37
2022-08-04T02:34:46.396Z,72.37
2022-08-04T02:35:46.389Z,72.37
2022-08-04T02:36:46.386Z,72.37
2022-08-04T02:37:46.367Z,72.27
2022-08-04T02:38:46.338Z,72.47
2022-08-04T02:39:48.742Z,72.47
2022-08-04T02:40:46.320Z,72.37
2022-08-04T02:41:46.319Z,72.56
2022-08-04T02:42:46.286Z,72.97
2022-08-04T02:43:50.832Z,73.00
2022-08-04T02:44:47.249Z,73.00
2022-08-04T02:45:46.247Z,73.00
2022-08-04T02:46:46.240Z,73.10
2022-08-04T02:48:28.846Z,73.21
2022-08-04T02:48:47.199Z,73.50
2022-08-04T02:49:46.199Z,73.61
2022-08-04T02:50:46.179Z,73.50
2022-08-04T02:51:46.199Z,73.61
2022-08-04T02:52:46.150Z,73.71
2022-08-04T02:53:46.139Z,73.71
2022-08-04T02:54:46.121Z,73.71
2022-08-04T02:55:50.834Z,73.71
2022-08-04T02:56:47.100Z,73.71
2022-08-04T02:57:46.090Z,73.81
2022-08-04T02:58:46.071Z,73.71
2022-08-04T02:59:46.058Z,73.50
2022-08-04T03:00:46.088Z,73.71
2022-08-04T03:01:57.129Z,73.81
2022-08-04T03:02:47.019Z,73.61
2022-08-04T03:03:46.002Z,73.61
2022-08-04T03:04:46.000Z,73.61
2022-08-04T03:06:00.679Z,73.71
2022-08-04T03:06:46.991Z,73.81
2022-08-04T03:07:45.952Z,73.81
2022-08-04T03:08:45.932Z,73.81
2022-08-04T03:09:45.922Z,73.81
2022-08-04T03:10:46.917Z,73.81
2022-08-04T03:11:45.912Z,74.04
2022-08-04T03:12:45.890Z,74.15
2022-08-04T03:13:45.864Z,73.94
2022-08-04T03:14:45.863Z,73.94
2022-08-04T03:15:45.842Z,73.84
2022-08-04T03:16:45.850Z,73.64
2022-08-04T03:17:52.420Z,73.64
2022-08-04T03:18:46.804Z,73.94
2022-08-04T03:19:45.784Z,73.94
2022-08-04T03:20:45.774Z,74.04
2022-08-04T03:21:45.781Z,73.94
2022-08-04T03:23:06.546Z,74.04
2022-08-04T03:23:46.735Z,74.15
2022-08-04T03:24:45.723Z,74.04
2022-08-04T03:25:57.067Z,73.94
2022-08-04T03:26:46.714Z,74.04
2022-08-04T03:27:45.695Z,74.04
2022-08-04T03:28:45.675Z,74.04
2022-08-04T03:29:45.655Z,74.04
2022-08-04T03:30:45.665Z,74.15
2022-08-04T03:31:45.645Z,74.24
2022-08-04T03:32:45.636Z,74.24
2022-08-04T03:33:45.595Z,74.44
2022-08-04T03:34:45.593Z,74.35
2022-08-04T03:35:45.576Z,74.35
2022-08-04T03:36:45.555Z,74.35
2022-08-04T03:37:45.565Z,74.35
2022-08-04T03:38:54.980Z,74.35
2022-08-04T03:39:46.659Z,74.38
2022-08-04T03:40:45.509Z,74.38
2022-08-04T03:41:55.300Z,74.48
2022-08-04T03:42:46.497Z,74.58
2022-08-04T03:43:59.007Z,74.78
2022-08-04T03:44:46.459Z,74.78
2022-08-04T03:45:45.427Z,74.78
2022-08-04T03:46:45.429Z,74.88
2022-08-04T03:47:45.445Z,74.88
2022-08-04T03:48:45.397Z,75.09
2022-08-04T03:49:45.386Z,75.18
2022-08-04T03:50:45.378Z,75.18
2022-08-04T03:51:45.357Z,75.09
2022-08-04T03:52:47.343Z,74.88
2022-08-04T03:53:45.369Z,74.98
2022-08-04T03:54:45.317Z,74.88
2022-08-04T03:55:45.306Z,74.88
2022-08-04T03:56:45.298Z,74.98
2022-08-04T03:57:45.289Z,74.98
2022-08-04T03:58:45.267Z,74.98
2022-08-04T03:59:48.707Z,74.98
2022-08-04T04:00:45.240Z,75.09
2022-08-04T04:02:02.120Z,75.18
2022-08-04T04:02:46.308Z,75.09
2022-08-04T04:03:45.198Z,75.09
2022-08-04T04:04:45.191Z,75.09
2022-08-04T04:05:59.983Z,75.09
2022-08-04T04:06:52.927Z,75.09
2022-08-04T04:07:46.768Z,75.29
2022-08-04T04:08:46.615Z,75.29
2022-08-04T04:09:57.592Z,75.22
2022-08-04T04:10:46.108Z,74.98
2022-08-04T04:11:57.523Z,74.88
2022-08-04T04:12:46.079Z,74.68
2022-08-04T04:13:52.362Z,74.72
2022-08-04T04:14:45.053Z,74.72
2022-08-04T04:15:49.813Z,74.92
2022-08-04T04:16:46.022Z,74.92
2022-08-04T04:17:45.021Z,74.82
2022-08-04T04:18:45.611Z,74.82
2022-08-04T04:19:44.992Z,74.92
2022-08-04T04:20:44.972Z,75.02
2022-08-04T04:21:45.023Z,75.22
2022-08-04T04:22:44.953Z,75.12
2022-08-04T04:23:44.943Z,75.22
2022-08-04T04:24:44.925Z,75.22
2022-08-04T04:25:44.894Z,75.12
2022-08-04T04:26:44.895Z,75.32
2022-08-04T04:27:44.874Z,75.42
2022-08-04T04:28:46.977Z,75.42
2022-08-04T04:29:44.847Z,75.52
2022-08-04T04:30:44.852Z,75.52
2022-08-04T04:31:44.825Z,75.72
2022-08-04T04:32:44.804Z,75.62
2022-08-04T04:33:44.821Z,75.52
2022-08-04T04:34:46.445Z,75.52
2022-08-04T04:35:44.764Z,75.82
2022-08-04T04:36:44.756Z,75.92
2022-08-04T04:37:48.886Z,76.03
2022-08-04T04:38:44.733Z,75.92
2022-08-04T04:39:44.737Z,75.82
2022-08-04T04:40:44.720Z,75.82
2022-08-04T04:41:44.686Z,76.03
2022-08-04T04:42:44.676Z,76.12
2022-08-04T04:43:50.752Z,75.89
2022-08-04T04:44:45.666Z,75.68
2022-08-04T04:45:44.626Z,75.68
2022-08-04T04:46:44.615Z,75.59
2022-08-04T04:48:08.181Z,75.49
2022-08-04T04:48:45.587Z,75.38
2022-08-04T04:49:44.631Z,75.18
2022-08-04T04:50:44.579Z,75.18
2022-08-04T04:51:44.556Z,75.09
2022-08-04T04:52:44.540Z,74.98
2022-08-04T04:53:44.545Z,74.98
2022-08-04T04:54:44.577Z,74.88
2022-08-04T04:55:48.082Z,74.98
2022-08-04T04:56:44.487Z,75.18
2022-08-04T04:57:53.853Z,75.18
2022-08-04T04:58:45.488Z,74.95
2022-08-04T04:59:44.440Z,74.85
2022-08-04T05:00:44.428Z,74.74
2022-08-04T05:01:44.407Z,74.44
2022-08-04T05:02:44.394Z,74.35
2022-08-04T05:03:44.398Z,74.44
2022-08-04T05:04:44.378Z,74.24
2022-08-04T05:05:44.350Z,74.04
2022-08-04T05:06:44.347Z,73.81
2022-08-04T05:07:44.317Z,73.71
2022-08-04T05:08:47.398Z,73.91
2022-08-04T05:09:44.307Z,73.91
2022-08-04T05:10:44.305Z,73.91
2022-08-04T05:11:44.280Z,73.81
2022-08-04T05:14:32.196Z,73.71
2022-08-04T05:14:35.067Z,73.71
2022-08-04T05:14:45.239Z,73.71
2022-08-04T05:15:44.257Z,73.61
2022-08-04T05:16:44.207Z,73.50
2022-08-04T05:17:44.215Z,73.41
2022-08-04T05:18:44.239Z,73.50
2022-08-04T05:19:44.172Z,73.50
2022-08-04T05:20:44.299Z,73.50
2022-08-04T05:21:44.147Z,73.61
2022-08-04T05:22:44.206Z,73.61
2022-08-04T05:23:44.137Z,73.50
2022-08-04T05:24:44.129Z,73.37
2022-08-04T05:25:59.464Z,73.37
2022-08-04T05:26:45.082Z,73.47
2022-08-04T05:27:44.070Z,73.37
2022-08-04T05:28:44.049Z,73.27
2022-08-04T05:29:44.157Z,73.47
2022-08-04T05:30:44.045Z,73.47
2022-08-04T05:31:44.032Z,73.47
2022-08-04T05:32:44.002Z,73.47
2022-08-04T05:33:43.981Z,73.47
2022-08-04T05:34:44.032Z,73.67
2022-08-04T05:36:17.730Z,73.77
2022-08-04T05:36:44.950Z,73.97
2022-08-04T05:37:43.934Z,73.97
2022-08-04T05:38:43.941Z,73.67
2022-08-04T05:39:44.007Z,73.37
2022-08-04T05:40:43.934Z,73.44
2022-08-04T05:41:45.414Z,73.44
2022-08-04T05:42:43.872Z,73.44
2022-08-04T05:43:43.868Z,73.54
2022-08-04T05:44:48.922Z,73.44
2022-08-04T05:45:44.822Z,73.24
2022-08-04T05:46:43.848Z,73.03
2022-08-04T05:47:43.841Z,73.24
2022-08-04T05:48:43.812Z,73.13
2022-08-04T05:49:43.768Z,72.94
2022-08-04T05:50:43.763Z,73.13
2022-08-04T05:51:43.754Z,73.30
2022-08-04T05:52:43.756Z,73.20
2022-08-04T05:53:43.753Z,73.20
2022-08-04T05:54:43.761Z,73.30
2022-08-04T05:55:49.046Z,73.30
2022-08-04T05:56:44.676Z,73.20
2022-08-04T05:57:43.664Z,73.30
2022-08-04T05:58:43.652Z,73.00
2022-08-04T05:59:43.645Z,73.00
2022-08-04T06:00:43.634Z,73.00
2022-08-04T06:01:55.454Z,73.10
2022-08-04T06:02:44.591Z,73.40
2022-08-04T06:03:43.586Z,73.40
2022-08-04T06:04:43.598Z,73.40
2022-08-04T06:05:43.555Z,73.57
2022-08-04T06:06:43.825Z,73.67
2022-08-04T06:08:10.953Z,73.57
2022-08-04T06:08:44.518Z,73.36
2022-08-04T06:09:43.524Z,73.57
2022-08-04T06:10:43.508Z,73.47
2022-08-04T06:12:03.897Z,73.47
2022-08-04T06:12:44.457Z,73.67
2022-08-04T06:13:48.743Z,73.57
2022-08-04T06:14:44.456Z,73.47
2022-08-04T06:15:44.445Z,73.27
2022-08-04T06:16:45.203Z,72.73
2022-08-04T06:19:57.460Z,72.63
2022-08-04T06:20:01.128Z,72.53
2022-08-04T06:20:01.951Z,72.53
2022-08-04T06:20:50.009Z,72.33
2022-08-04T06:21:44.338Z,72.13
2022-08-04T06:22:43.347Z,71.93
2022-08-04T06:23:53.697Z,72.03
2022-08-04T06:24:44.318Z,72.13
2022-08-04T06:25:43.294Z,72.33
2022-08-04T06:26:43.285Z,72.13
2022-08-04T06:27:43.261Z,71.80
2022-08-04T06:28:43.248Z,71.80
2022-08-04T06:29:51.256Z,72.00
2022-08-04T06:30:44.249Z,71.89
2022-08-04T06:32:28.710Z,72.09
2022-08-04T06:32:44.208Z,72.19
2022-08-04T06:33:54.325Z,72.00
2022-08-04T06:34:44.188Z,71.50
2022-08-04T06:35:43.140Z,71.39
2022-08-04T06:36:43.140Z,71.39
2022-08-04T06:37:44.390Z,71.50
2022-08-04T06:38:43.137Z,71.39
2022-08-04T06:39:43.122Z,71.30
2022-08-04T06:40:43.081Z,71.19
2022-08-04T06:42:20.705Z,70.79
2022-08-04T06:42:44.059Z,71.19
2022-08-04T06:43:43.769Z,71.36
2022-08-04T06:44:43.041Z,71.06
2022-08-04T06:45:43.019Z,71.16
2022-08-04T06:46:43.013Z,71.56
2022-08-04T06:47:42.991Z,71.46
2022-08-04T06:48:43.000Z,71.26
2022-08-04T06:49:55.122Z,70.96
2022-08-04T06:51:32.309Z,70.43
2022-08-04T06:51:49.348Z,70.43
2022-08-04T06:52:43.946Z,69.62
2022-08-04T06:53:42.931Z,69.82
2022-08-04T06:54:42.925Z,70.12
2022-08-04T06:55:42.883Z,69.53
2022-08-04T06:56:42.892Z,69.12
2022-08-04T06:57:42.853Z,68.69
2022-08-04T06:58:42.863Z,68.79
2022-08-04T06:59:42.844Z,68.79
2022-08-04T07:00:42.823Z,69.09
2022-08-04T07:01:42.854Z,68.09
2022-08-04T07:02:42.801Z,67.29
2022-08-04T07:03:43.024Z,67.36
2022-08-04T07:04:42.765Z,67.76
2022-08-04T07:05:42.753Z,67.86
2022-08-04T07:06:42.755Z,67.46
2022-08-04T07:07:57.671Z,66.46
2022-08-04T07:08:43.751Z,65.96
2022-08-04T07:09:42.698Z,65.66
2022-08-04T07:10:42.695Z,66.13
2022-08-04T07:11:44.717Z,66.43
2022-08-04T07:12:42.664Z,66.03
2022-08-04T07:13:45.173Z,66.23
2022-08-04T07:14:42.642Z,66.73
2022-08-04T07:15:42.626Z,66.63
2022-08-04T07:16:42.625Z,66.73
2022-08-04T07:17:42.595Z,67.03
2022-08-04T07:18:42.593Z,66.70
2022-08-04T07:19:42.577Z,66.50
2022-08-04T07:20:42.554Z,66.20
2022-08-04T07:21:42.548Z,65.10
2022-08-04T07:22:43.527Z,65.20
2022-08-04T07:23:42.556Z,65.40
2022-08-04T07:24:42.538Z,65.20
2022-08-04T07:26:00.914Z,65.10
2022-08-04T07:26:43.466Z,65.30
2022-08-04T07:27:47.521Z,65.40
2022-08-04T07:28:43.466Z,64.97
2022-08-04T07:29:42.458Z,64.97
2022-08-04T07:30:42.426Z,64.87
2022-08-04T07:31:42.427Z,65.17
2022-08-04T07:32:42.426Z,64.87
2022-08-04T07:33:42.436Z,64.37
2022-08-04T07:34:42.431Z,63.87
2022-08-04T07:36:08.327Z,65.47
2022-08-04T07:36:50.958Z,65.56
2022-08-04T07:37:43.339Z,65.73
2022-08-04T07:38:51.407Z,65.44
2022-08-04T07:39:47.684Z,64.64
2022-08-04T07:40:43.288Z,64.74
2022-08-04T07:41:45.100Z,64.34
2022-08-04T07:42:43.262Z,65.04
2022-08-04T07:43:42.291Z,64.14
2022-08-04T07:44:42.260Z,64.61
2022-08-04T07:45:42.241Z,64.61
2022-08-04T07:46:42.200Z,65.31
2022-08-04T07:47:42.209Z,65.20
2022-08-04T07:48:43.210Z,64.71
2022-08-04T07:49:56.012Z,64.71
2022-08-04T07:50:43.151Z,64.67
2022-08-04T07:51:42.150Z,64.07
2022-08-04T07:52:42.140Z,63.58
2022-08-04T07:53:54.319Z,63.58
2022-08-04T07:54:43.108Z,63.88
2022-08-04T07:55:42.101Z,63.98
2022-08-04T07:56:42.080Z,64.34
2022-08-04T07:57:42.392Z,64.15
2022-08-04T07:58:42.081Z,63.85
2022-08-04T07:59:42.045Z,64.04
2022-08-04T08:00:42.023Z,63.85
2022-08-04T08:01:42.023Z,63.95
2022-08-04T08:02:42.006Z,63.62
2022-08-04T08:03:42.142Z,63.52
2022-08-04T08:04:41.982Z,63.22
2022-08-04T08:06:17.272Z,63.52
2022-08-04T08:06:43.493Z,63.22
2022-08-04T08:07:51.043Z,62.72
2022-08-04T08:08:42.944Z,62.72
2022-08-04T08:09:41.913Z,62.92
2022-08-04T08:10:41.896Z,63.22
2022-08-04T08:12:37.369Z,63.02
2022-08-04T08:12:51.454Z,62.52
2022-08-04T08:13:42.894Z,62.52
2022-08-04T08:14:41.835Z,62.89
2022-08-04T08:15:41.824Z,62.49
2022-08-04T08:16:41.814Z,62.40
2022-08-04T08:17:58.760Z,62.69
2022-08-04T08:18:45.573Z,63.49
2022-08-04T08:19:42.780Z,63.69
2022-08-04T08:20:41.764Z,63.79
2022-08-04T08:21:58.935Z,63.59
2022-08-04T08:22:42.743Z,63.29
2022-08-04T08:23:41.715Z,62.79
2022-08-04T08:24:41.744Z,62.46
2022-08-04T08:25:41.746Z,62.07
2022-08-04T08:26:41.695Z,61.96
2022-08-04T08:27:55.766Z,62.56
2022-08-04T08:28:42.658Z,62.37
2022-08-04T08:29:41.656Z,61.87
2022-08-04T08:30:41.888Z,62.07
2022-08-04T08:31:58.302Z,61.74
2022-08-04T08:32:42.631Z,61.34
2022-08-04T08:33:41.615Z,61.34
2022-08-04T08:34:41.618Z,62.73
2022-08-04T08:35:53.104Z,62.34
2022-08-04T08:36:42.547Z,62.01
2022-08-04T08:37:42.171Z,61.91
2022-08-04T08:38:41.540Z,61.41
2022-08-04T08:39:41.667Z,61.41
2022-08-04T08:40:41.598Z,61.51
2022-08-04T08:41:41.570Z,61.91
2022-08-04T08:42:41.578Z,62.67
2022-08-04T08:44:05.367Z,62.57
2022-08-04T08:44:42.461Z,61.68
2022-08-04T08:45:41.555Z,60.26
2022-08-04T08:46:49.363Z,60.16
2022-08-04T08:48:04.620Z,59.76
2022-08-04T08:48:42.400Z,60.66
2022-08-04T08:50:03.061Z,61.45
2022-08-04T08:50:42.361Z,61.45
2022-08-04T08:51:42.643Z,61.25
2022-08-04T08:52:56.424Z,60.56
2022-08-04T08:53:42.350Z,60.46
2022-08-04T08:54:41.318Z,60.26
2022-08-04T08:55:41.324Z,60.36
2022-08-04T08:56:41.304Z,60.06
2022-08-04T08:57:59.263Z,59.93
2022-08-04T08:58:42.272Z,60.13
2022-08-04T08:59:41.261Z,59.34
2022-08-04T09:00:41.248Z,59.74
2022-08-04T09:01:41.975Z,59.53
2022-08-04T09:02:41.242Z,60.00
2022-08-04T09:03:41.210Z,58.81
2022-08-04T09:04:41.189Z,56.73
2022-08-04T09:05:41.183Z,57.03
2022-08-04T09:06:41.164Z,57.23
2022-08-04T09:07:41.202Z,56.93
2022-08-04T09:08:41.133Z,57.89
2022-08-04T09:09:41.133Z,57.00
2022-08-04T09:10:41.107Z,57.59
2022-08-04T09:11:41.123Z,57.10
2022-08-04T09:12:41.094Z,56.80
2022-08-04T09:13:41.104Z,55.78
2022-08-04T09:14:41.063Z,55.49
2022-08-04T09:15:41.072Z,55.88
2022-08-04T09:16:41.357Z,54.99
2022-08-04T09:17:41.074Z,55.39
2022-08-04T09:18:41.033Z,56.18
2022-08-04T09:19:40.993Z,55.46
2022-08-04T09:20:41.195Z,54.67
2022-08-04T09:21:41.042Z,54.47
2022-08-04T09:22:41.032Z,54.67
2022-08-04T09:23:41.044Z,54.27
2022-08-04T09:24:40.926Z,54.74
2022-08-04T09:25:40.916Z,54.84
2022-08-04T09:26:41.017Z,54.35
2022-08-04T09:27:40.887Z,53.95
2022-08-04T09:28:56.023Z,53.63
2022-08-04T09:29:41.857Z,53.42
2022-08-04T09:30:40.847Z,54.32
2022-08-04T09:31:48.653Z,53.72
2022-08-04T09:32:41.818Z,53.03
2022-08-04T09:33:44.650Z,52.93
2022-08-04T09:34:41.894Z,52.83
2022-08-04T09:35:40.792Z,52.93
2022-08-04T09:36:40.788Z,52.73
2022-08-04T09:37:45.859Z,52.91
2022-08-04T09:38:41.812Z,52.91
2022-08-04T09:39:41.114Z,54.59
2022-08-04T09:40:53.054Z,53.57
2022-08-04T09:41:49.353Z,51.40
2022-08-04T09:42:41.686Z,50.61
2022-08-04T09:43:57.065Z,49.72
2022-08-04T09:44:50.089Z,49.42
2022-08-04T09:45:43.380Z,49.82
2022-08-04T09:46:40.635Z,50.01
2022-08-04T09:47:40.994Z,50.29
2022-08-04T09:48:40.621Z,49.99
2022-08-04T09:49:40.608Z,50.68
2022-08-04T09:50:40.625Z,51.07
2022-08-04T09:51:58.451Z,49.99
2022-08-04T09:52:41.558Z,49.01
2022-08-04T09:53:40.680Z,50.68
2022-08-04T09:54:40.536Z,50.29
2022-08-04T09:55:54.831Z,49.27
2022-08-04T09:56:41.493Z,50.95
2022-08-04T09:57:40.500Z,49.27
2022-08-04T09:58:40.493Z,49.87
2022-08-04T09:59:40.469Z,50.16
2022-08-04T10:00:42.127Z,49.84
2022-08-04T10:01:40.444Z,50.14
2022-08-04T10:02:40.541Z,48.83
2022-08-04T10:03:40.432Z,49.43
2022-08-04T10:04:40.405Z,49.43
2022-08-04T10:05:40.391Z,49.82
2022-08-04T10:06:40.524Z,47.82
2022-08-04T10:07:40.373Z,47.23
2022-08-04T10:08:40.363Z,48.12
2022-08-04T10:09:40.353Z,47.63
2022-08-04T10:10:40.345Z,47.72
2022-08-04T10:11:56.232Z,47.63
2022-08-04T10:12:41.295Z,47.82
2022-08-04T10:13:47.367Z,48.39
2022-08-04T10:14:40.270Z,48.10
2022-08-04T10:15:40.260Z,48.10
2022-08-04T10:16:40.239Z,47.58
2022-08-04T10:17:43.603Z,47.78
2022-08-04T10:18:41.240Z,47.48
2022-08-04T10:19:40.208Z,47.97
2022-08-04T10:20:44.822Z,48.07
2022-08-04T10:21:59.671Z,48.54
2022-08-04T10:23:02.143Z,47.66
2022-08-04T10:23:56.624Z,47.16
2022-08-04T10:24:41.150Z,47.34
2022-08-04T10:26:05.895Z,46.75
2022-08-04T10:26:41.111Z,46.65
2022-08-04T10:27:40.109Z,47.02
2022-08-04T10:28:40.084Z,45.64
2022-08-04T10:29:40.099Z,44.36
2022-08-04T10:30:40.061Z,44.17
2022-08-04T10:31:40.050Z,45.35
2022-08-04T10:32:42.961Z,45.45
2022-08-04T10:33:40.032Z,45.05
2022-08-04T10:34:40.022Z,44.66
2022-08-04T10:35:40.001Z,44.46
2022-08-04T10:36:39.983Z,45.54
2022-08-04T10:37:58.936Z,44.85
2022-08-04T10:38:40.974Z,45.54
2022-08-04T10:39:41.994Z,46.72
2022-08-04T10:40:39.934Z,47.12
2022-08-04T10:41:39.924Z,46.50
2022-08-04T10:42:39.905Z,45.62
2022-08-04T10:43:39.903Z,46.11
2022-08-04T10:44:41.818Z,45.81
2022-08-04T10:45:39.867Z,46.80
2022-08-04T10:46:39.854Z,46.68
2022-08-04T10:47:39.844Z,46.58
2022-08-04T10:48:40.230Z,46.38
2022-08-04T10:49:39.836Z,45.30
2022-08-04T10:50:39.796Z,45.38
2022-08-04T10:51:57.637Z,44.59
2022-08-04T10:52:40.777Z,44.59
2022-08-04T10:53:39.786Z,44.89
2022-08-04T10:54:39.747Z,43.22
2022-08-04T10:56:07.578Z,43.02
2022-08-04T10:56:40.716Z,43.90
2022-08-04T10:57:39.718Z,45.26
2022-08-04T10:58:47.687Z,44.87
2022-08-04T10:59:40.705Z,45.26
2022-08-04T11:00:39.671Z,45.16
2022-08-04T11:02:00.570Z,45.26
2022-08-04T11:02:40.716Z,44.45
2022-08-04T11:03:39.638Z,44.16
2022-08-04T11:04:39.636Z,43.57
2022-08-04T11:05:43.897Z,43.86
2022-08-04T11:06:40.598Z,43.86
2022-08-04T11:07:39.590Z,42.66
2022-08-04T11:08:39.570Z,43.57
2022-08-04T11:09:39.578Z,44.06
2022-08-04T11:10:39.554Z,44.13
2022-08-04T11:12:01.092Z,43.45
2022-08-04T11:12:40.513Z,42.37
2022-08-04T11:13:42.722Z,41.58
2022-08-04T11:14:40.511Z,43.15
2022-08-04T11:15:39.484Z,43.65
2022-08-04T11:16:39.468Z,41.47
2022-08-04T11:17:39.459Z,40.98
2022-08-04T11:18:39.439Z,40.58
2022-08-04T11:19:44.734Z,41.27
2022-08-04T11:20:40.416Z,42.55
2022-08-04T11:21:39.424Z,41.56
2022-08-04T11:22:39.384Z,41.45
2022-08-04T11:23:39.381Z,41.05
2022-08-04T11:24:39.370Z,39.29
2022-08-04T11:25:39.342Z,39.86
2022-08-04T11:26:39.329Z,39.96
2022-08-04T11:27:39.325Z,40.25
2022-08-04T11:28:39.311Z,39.86
2022-08-04T11:29:39.324Z,40.43
2022-08-04T11:30:39.274Z,40.23
2022-08-04T11:31:39.283Z,39.25
2022-08-04T11:32:39.265Z,39.27
2022-08-04T11:33:39.245Z,39.66
2022-08-04T11:34:39.255Z,39.76
2022-08-04T11:35:39.226Z,39.88
2022-08-04T11:36:39.205Z,39.09
2022-08-04T11:37:39.212Z,39.69
2022-08-04T11:38:39.187Z,39.00
2022-08-04T11:39:39.255Z,39.39
2022-08-04T11:40:39.166Z,39.00
2022-08-04T11:41:39.145Z,39.39
2022-08-04T11:42:39.143Z,39.29
2022-08-04T11:44:00.522Z,39.09
2022-08-04T11:44:40.135Z,38.51
2022-08-04T11:45:39.094Z,39.00
2022-08-04T11:46:39.087Z,39.09
2022-08-04T11:47:39.077Z,38.60
2022-08-04T11:48:39.060Z,39.00
2022-08-04T11:49:56.946Z,38.60
2022-08-04T11:50:40.028Z,38.21
2022-08-04T11:51:39.009Z,38.33
2022-08-04T11:52:39.013Z,38.72
2022-08-04T11:53:39.003Z,39.11
2022-08-04T11:54:38.998Z,38.72
2022-08-04T11:56:06.908Z,39.01
2022-08-04T11:56:39.959Z,39.90
2022-08-04T11:57:38.972Z,40.48
2022-08-04T11:58:38.945Z,40.56
2022-08-04T11:59:38.938Z,40.58
2022-08-04T12:00:38.908Z,39.51
2022-08-04T12:01:38.899Z,40.56
2022-08-04T12:02:38.973Z,41.45
2022-08-04T12:03:38.862Z,40.64
2022-08-04T12:04:38.871Z,38.88
2022-08-04T12:05:38.832Z,38.57
2022-08-04T12:06:38.839Z,37.88
2022-08-04T12:07:41.442Z,38.08
2022-08-04T12:08:38.812Z,38.10
2022-08-04T12:09:38.804Z,37.90
2022-08-04T12:10:42.289Z,37.73
2022-08-04T12:11:38.774Z,38.78
2022-08-04T12:12:38.761Z,40.55
2022-08-04T12:13:38.732Z,39.74
2022-08-04T12:14:38.756Z,37.98
2022-08-04T12:15:38.714Z,35.83
2022-08-04T12:16:38.713Z,34.75
2022-08-04T12:17:52.351Z,34.65
2022-08-04T12:18:39.683Z,34.45
2022-08-04T12:20:04.180Z,33.77
2022-08-04T12:20:41.154Z,33.67
2022-08-04T12:21:38.635Z,33.58
2022-08-04T12:22:40.938Z,34.28
2022-08-04T12:23:38.615Z,33.98
2022-08-04T12:24:38.615Z,34.57
2022-08-04T12:25:43.108Z,33.67
2022-08-04T12:26:39.576Z,33.58
2022-08-04T12:27:38.566Z,33.95
2022-08-04T12:29:07.211Z,34.54
2022-08-04T12:29:39.554Z,34.54
2022-08-04T12:31:02.139Z,35.11
2022-08-04T12:31:39.507Z,35.79
2022-08-04T12:32:38.496Z,35.97
2022-08-04T12:34:03.792Z,34.11
2022-08-04T12:34:39.498Z,34.11
2022-08-04T12:35:38.464Z,35.48
2022-08-04T12:36:39.461Z,33.70
2022-08-04T12:37:38.435Z,34.97
2022-08-04T12:38:38.459Z,34.88
2022-08-04T12:40:17.028Z,34.58
2022-08-04T12:40:39.419Z,34.18
2022-08-04T12:41:38.386Z,33.01
2022-08-04T12:42:38.379Z,31.62
2022-08-04T12:43:38.347Z,32.31
2022-08-04T12:44:39.166Z,32.70
2022-08-04T12:45:38.364Z,32.23
2022-08-04T12:46:38.331Z,31.74
2022-08-04T12:47:38.687Z,32.42
2022-08-04T12:48:38.300Z,32.91
2022-08-04T12:49:38.290Z,32.32
2022-08-04T12:50:38.324Z,32.03
2022-08-04T12:52:07.383Z,31.64
2022-08-04T12:53:00.295Z,33.01